createdAt,value
2018-09-29T00:00:23.023Z,14.50
2018-09-29T00:02:52.296Z,14.43
2018-09-29T00:05:22.565Z,14.37
2018-09-29T00:07:52.040Z,14.35
2018-09-29T00:10:23.089Z,14.38
2018-09-29T00:12:52.640Z,14.38
2018-09-29T00:15:22.178Z,14.62
2018-09-29T00:17:51.687Z,14.60
2018-09-29T00:20:22.331Z,14.30
2018-09-29T00:22:52.594Z,13.99
2018-09-29T00:25:22.130Z,13.90
2018-09-29T00:27:51.480Z,13.85
2018-09-29T00:30:25.104Z,13.74
2018-09-29T00:32:54.434Z,13.72
2018-09-29T00:35:23.883Z,13.68
2018-09-29T00:37:54.206Z,13.65
2018-09-29T00:40:23.459Z,13.62
2018-09-29T00:42:52.771Z,13.62
2018-09-29T00:45:22.169Z,13.62
2018-09-29T00:47:51.906Z,13.73
2018-09-29T00:50:22.614Z,13.82
2018-09-29T00:52:53.138Z,13.82
2018-09-29T00:55:22.988Z,13.95
2018-09-29T00:57:52.775Z,13.93
2018-09-29T01:00:23.314Z,14.02
2018-09-29T01:02:52.635Z,14.11
2018-09-29T01:05:22.837Z,14.08
2018-09-29T01:07:52.549Z,14.12
2018-09-29T01:10:24.678Z,14.07
2018-09-29T01:12:55.230Z,14.15
2018-09-29T01:15:24.657Z,14.05
2018-09-29T01:17:54.382Z,14.17
2018-09-29T01:20:23.965Z,14.06
2018-09-29T01:22:55.416Z,13.85
2018-09-29T01:25:25.092Z,13.71
2018-09-29T01:27:55.652Z,13.59
2018-09-29T01:30:25.678Z,13.63
2018-09-29T01:32:55.054Z,13.74
2018-09-29T01:35:25.677Z,13.81
2018-09-29T01:37:54.984Z,13.90
2018-09-29T01:40:24.395Z,13.92
2018-09-29T01:42:54.879Z,13.97
2018-09-29T01:45:24.044Z,13.99
2018-09-29T01:47:53.735Z,13.94
2018-09-29T01:50:24.078Z,13.93
2018-09-29T01:52:54.397Z,13.70
2018-09-29T01:55:24.509Z,13.42
2018-09-29T01:57:53.727Z,13.22
2018-09-29T02:00:22.925Z,13.01
2018-09-29T02:02:52.679Z,12.80
2018-09-29T02:05:23.725Z,12.59
2018-09-29T02:07:55.220Z,12.72
2018-09-29T02:10:26.597Z,12.69
2018-09-29T02:12:56.303Z,12.69
2018-09-29T02:15:28.482Z,12.70
2018-09-29T02:17:58.206Z,12.77
2018-09-29T02:20:28.082Z,12.87
2018-09-29T02:22:59.006Z,12.93
2018-09-29T02:25:28.951Z,13.13
2018-09-29T02:27:58.267Z,12.99
2018-09-29T02:30:28.998Z,13.04
2018-09-29T02:32:58.293Z,13.04
2018-09-29T02:35:30.275Z,12.96
2018-09-29T02:37:59.703Z,12.95
2018-09-29T02:40:30.558Z,13.10
2018-09-29T02:42:59.791Z,13.14
2018-09-29T02:45:29.389Z,13.15
2018-09-29T02:47:58.652Z,13.42
2018-09-29T02:50:28.972Z,13.53
2018-09-29T02:52:58.237Z,13.71
2018-09-29T02:55:29.244Z,13.77
2018-09-29T02:57:58.498Z,13.83
2018-09-29T03:00:28.933Z,13.75
2018-09-29T03:02:59.059Z,13.56
2018-09-29T03:05:29.202Z,13.63
2018-09-29T03:07:58.732Z,13.70
2018-09-29T03:10:29.088Z,13.73
2018-09-29T03:12:58.408Z,13.72
2018-09-29T03:15:28.459Z,13.97
2018-09-29T03:17:57.644Z,14.26
2018-09-29T03:20:27.481Z,14.09
2018-09-29T03:22:56.766Z,14.07
2018-09-29T03:25:26.430Z,14.05
2018-09-29T03:27:55.677Z,13.86
2018-09-29T03:30:25.560Z,13.83
2018-09-29T03:32:54.931Z,13.86
2018-09-29T03:35:24.130Z,13.81
2018-09-29T03:37:53.434Z,13.97
2018-09-29T03:40:22.796Z,14.03
2018-09-29T03:42:52.269Z,13.69
2018-09-29T03:45:21.681Z,13.25
2018-09-29T03:47:51.098Z,12.72
2018-09-29T03:50:20.875Z,12.54
2018-09-29T03:52:50.231Z,12.42
2018-09-29T03:55:20.298Z,12.44
2018-09-29T03:57:49.554Z,12.69
2018-09-29T04:00:20.599Z,12.80
2018-09-29T04:02:50.043Z,12.93
2018-09-29T04:05:20.781Z,12.94
2018-09-29T04:07:50.041Z,13.06
2018-09-29T04:10:21.152Z,13.21
2018-09-29T04:12:50.401Z,13.35
2018-09-29T04:15:21.665Z,13.19
2018-09-29T04:17:50.965Z,13.22
2018-09-29T04:20:20.880Z,13.33
2018-09-29T04:22:50.226Z,13.26
2018-09-29T04:25:19.461Z,13.37
2018-09-29T04:27:48.666Z,13.24
2018-09-29T04:30:20.268Z,13.40
2018-09-29T04:32:49.531Z,13.68
2018-09-29T04:35:20.684Z,13.76
2018-09-29T04:37:50.021Z,13.77
2018-09-29T04:40:19.886Z,13.83
2018-09-29T04:42:49.290Z,13.94
2018-09-29T04:45:19.540Z,13.86
2018-09-29T04:47:48.938Z,13.97
2018-09-29T04:50:20.098Z,14.00
2018-09-29T04:52:49.986Z,13.83
2018-09-29T04:55:19.265Z,13.95
2018-09-29T04:57:48.521Z,14.04
2018-09-29T05:00:19.501Z,13.96
2018-09-29T05:02:48.891Z,13.85
2018-09-29T05:05:19.429Z,13.94
2018-09-29T05:07:48.791Z,14.04
2018-09-29T05:10:20.104Z,14.06
2018-09-29T05:12:49.277Z,13.98
2018-09-29T05:15:19.253Z,13.96
2018-09-29T05:17:48.505Z,13.97
2018-09-29T05:20:20.797Z,14.28
2018-09-29T05:22:50.159Z,14.41
2018-09-29T05:25:19.610Z,14.77
2018-09-29T05:27:48.938Z,15.16
2018-09-29T05:30:20.299Z,15.45
2018-09-29T05:32:49.541Z,15.85
2018-09-29T05:35:22.126Z,16.17
2018-09-29T05:37:52.045Z,16.55
2018-09-29T05:40:21.382Z,16.54
2018-09-29T05:42:50.653Z,16.91
2018-09-29T05:45:19.774Z,16.98
2018-09-29T05:47:48.978Z,17.19
2018-09-29T05:50:22.025Z,17.53
2018-09-29T05:52:51.271Z,17.86
2018-09-29T05:55:24.166Z,18.06
2018-09-29T05:57:53.464Z,18.47
2018-09-29T06:00:22.610Z,18.66
2018-09-29T06:02:51.930Z,18.77
2018-09-29T06:05:21.395Z,19.10
2018-09-29T06:07:50.635Z,19.13
2018-09-29T06:10:21.849Z,19.11
2018-09-29T06:12:51.081Z,19.58
2018-09-29T06:15:20.201Z,19.73
2018-09-29T06:17:49.459Z,20.08
2018-09-29T06:20:21.588Z,20.25
2018-09-29T06:22:51.617Z,20.48
2018-09-29T06:25:21.272Z,20.65
2018-09-29T06:27:50.605Z,20.70
2018-09-29T06:30:22.162Z,20.91
2018-09-29T06:32:51.486Z,20.75
2018-09-29T06:35:22.680Z,20.70
2018-09-29T06:37:52.425Z,20.84
2018-09-29T06:40:21.858Z,21.04
2018-09-29T06:42:51.332Z,21.50
2018-09-29T06:45:20.840Z,21.48
2018-09-29T06:47:50.197Z,21.44
2018-09-29T06:50:22.366Z,21.70
2018-09-29T06:52:51.580Z,21.78
2018-09-29T06:55:22.271Z,22.02
2018-09-29T06:57:51.450Z,21.90
2018-09-29T07:00:21.831Z,22.21
2018-09-29T07:02:51.388Z,22.49
2018-09-29T07:05:22.108Z,22.43
2018-09-29T07:07:52.472Z,23.16
2018-09-29T07:10:22.962Z,23.28
2018-09-29T07:12:53.051Z,23.56
2018-09-29T07:15:22.836Z,23.60
2018-09-29T07:17:53.375Z,24.06
2018-09-29T07:20:23.500Z,24.62
2018-09-29T07:22:53.053Z,24.98
2018-09-29T07:25:22.612Z,25.45
2018-09-29T07:27:53.190Z,25.43
2018-09-29T07:30:24.170Z,25.19
2018-09-29T07:32:54.223Z,25.38
2018-09-29T07:35:24.834Z,25.30
2018-09-29T07:37:55.262Z,25.81
2018-09-29T07:40:25.134Z,26.03
2018-09-29T07:42:55.509Z,26.15
2018-09-29T07:45:24.877Z,26.12
2018-09-29T07:47:55.124Z,26.39
2018-09-29T07:50:26.927Z,26.91
2018-09-29T07:52:56.640Z,27.26
2018-09-29T07:55:27.653Z,27.45
2018-09-29T07:57:57.719Z,27.08
2018-09-29T08:00:28.472Z,27.45
2018-09-29T08:02:59.232Z,27.49
2018-09-29T08:05:30.728Z,27.70
2018-09-29T08:08:00.677Z,27.67
2018-09-29T08:10:31.710Z,27.95
2018-09-29T08:13:01.514Z,28.35
2018-09-29T08:15:31.774Z,28.70
2018-09-29T08:18:02.370Z,28.87
2018-09-29T08:20:32.929Z,29.27
2018-09-29T08:23:03.031Z,29.21
2018-09-29T08:25:33.380Z,29.60
2018-09-29T08:28:03.312Z,29.51
2018-09-29T08:30:33.325Z,29.41
2018-09-29T08:33:03.219Z,30.05
2018-09-29T08:35:33.538Z,30.45
2018-09-29T08:38:04.548Z,30.20
2018-09-29T08:40:35.584Z,30.12
2018-09-29T08:43:05.677Z,30.59
2018-09-29T08:45:35.955Z,30.54
2018-09-29T08:48:05.607Z,30.46
2018-09-29T08:50:35.825Z,31.21
2018-09-29T08:53:05.725Z,30.82
2018-09-29T08:55:36.566Z,30.11
2018-09-29T08:58:06.590Z,30.82
2018-09-29T09:00:37.908Z,30.21
2018-09-29T09:03:08.954Z,28.86
2018-09-29T09:05:39.799Z,27.57
2018-09-29T09:08:09.884Z,27.84
2018-09-29T09:10:40.046Z,27.91
2018-09-29T09:13:11.193Z,28.74
2018-09-29T09:15:41.135Z,27.89
2018-09-29T09:18:10.794Z,25.83
2018-09-29T09:20:40.925Z,26.30
2018-09-29T09:23:10.601Z,25.27
2018-09-29T09:25:40.640Z,25.20
2018-09-29T09:28:10.101Z,25.52
2018-09-29T09:30:39.462Z,25.52
2018-09-29T09:33:08.846Z,25.75
2018-09-29T09:35:38.741Z,26.40
2018-09-29T09:38:08.028Z,26.62
2018-09-29T09:40:37.669Z,26.20
2018-09-29T09:43:07.026Z,26.63
2018-09-29T09:45:36.825Z,27.83
2018-09-29T09:48:06.214Z,26.95
2018-09-29T09:50:35.637Z,26.16
2018-09-29T09:53:05.005Z,25.76
2018-09-29T09:55:34.693Z,25.96
2018-09-29T09:58:04.036Z,26.38
2018-09-29T10:00:38.649Z,26.28
2018-09-29T10:03:13.084Z,26.38
2018-09-29T10:05:43.665Z,25.67
2018-09-29T10:08:13.138Z,26.25
2018-09-29T10:10:42.402Z,25.84
2018-09-29T10:13:12.243Z,25.68
2018-09-29T10:15:42.254Z,25.64
2018-09-29T10:18:11.971Z,26.17
2018-09-29T10:20:41.166Z,25.80
2018-09-29T10:23:10.964Z,26.40
2018-09-29T10:25:41.079Z,26.83
2018-09-29T10:28:10.356Z,27.42
2018-09-29T10:30:40.090Z,27.73
2018-09-29T10:33:10.174Z,27.85
2018-09-29T10:35:39.429Z,28.50
2018-09-29T10:38:08.730Z,28.71
2018-09-29T10:40:38.442Z,27.72
2018-09-29T10:43:08.036Z,27.61
2018-09-29T10:45:37.994Z,26.88
2018-09-29T10:48:07.513Z,26.97
2018-09-29T10:50:37.081Z,26.91
2018-09-29T10:53:06.390Z,26.57
2018-09-29T10:55:36.157Z,26.43
2018-09-29T10:58:05.570Z,27.09
2018-09-29T11:00:39.957Z,26.87
2018-09-29T11:03:09.409Z,26.47
2018-09-29T11:05:43.095Z,26.97
2018-09-29T11:08:17.593Z,27.08
2018-09-29T11:10:46.983Z,27.12
2018-09-29T11:13:16.261Z,27.78
2018-09-29T11:15:45.487Z,27.33
2018-09-29T11:18:15.124Z,26.85
2018-09-29T11:20:44.777Z,27.42
2018-09-29T11:23:15.242Z,27.64
2018-09-29T11:25:45.148Z,27.21
2018-09-29T11:28:14.774Z,27.39
2018-09-29T11:30:45.001Z,26.99
2018-09-29T11:33:14.658Z,27.12
2018-09-29T11:35:44.356Z,27.29
2018-09-29T11:38:14.103Z,27.67
2018-09-29T11:40:43.339Z,27.78
2018-09-29T11:43:14.072Z,27.64
2018-09-29T11:45:44.138Z,27.29
2018-09-29T11:48:13.648Z,27.16
2018-09-29T11:50:43.460Z,26.91
2018-09-29T11:53:13.019Z,27.07
2018-09-29T11:55:42.865Z,27.49
2018-09-29T11:58:12.724Z,27.06
2018-09-29T12:00:43.508Z,27.12
2018-09-29T12:03:12.685Z,27.14
2018-09-29T12:05:42.256Z,27.46
2018-09-29T12:08:12.075Z,26.98
2018-09-29T12:10:41.467Z,27.06
2018-09-29T12:13:10.603Z,27.33
2018-09-29T12:15:39.888Z,27.76
2018-09-29T12:18:09.287Z,27.93
2018-09-29T12:20:38.835Z,27.88
2018-09-29T12:23:08.181Z,27.67
2018-09-29T12:25:38.110Z,27.84
2018-09-29T12:28:07.735Z,28.01
2018-09-29T12:30:37.303Z,28.00
2018-09-29T12:33:07.796Z,28.97
2018-09-29T12:35:37.473Z,27.92
2018-09-29T12:38:13.201Z,26.78
2018-09-29T12:40:42.704Z,27.74
2018-09-29T12:43:12.152Z,28.60
2018-09-29T12:45:41.660Z,28.53
2018-09-29T12:51:04.362Z,27.32
2018-09-29T12:53:34.281Z,27.25
2018-09-29T12:56:03.658Z,27.10
2018-09-29T12:58:33.424Z,27.27
2018-09-29T13:01:05.529Z,27.12
2018-09-29T13:03:35.191Z,26.76
2018-09-29T13:06:05.195Z,27.08
2018-09-29T13:08:34.757Z,27.05
2018-09-29T13:11:04.629Z,27.12
2018-09-29T13:13:33.868Z,27.63
2018-09-29T13:16:03.279Z,26.75
2018-09-29T13:18:32.733Z,26.87
2018-09-29T13:21:01.956Z,26.79
2018-09-29T13:23:31.227Z,26.62
2018-09-29T13:26:00.407Z,26.80
2018-09-29T13:28:29.805Z,26.90
2018-09-29T13:30:58.972Z,26.84
2018-09-29T13:33:28.604Z,27.57
2018-09-29T13:35:57.857Z,27.79
2018-09-29T13:38:27.236Z,27.87
2018-09-29T13:40:56.536Z,27.18
2018-09-29T13:43:25.934Z,26.76
2018-09-29T13:45:55.085Z,26.60
2018-09-29T13:48:24.422Z,26.40
2018-09-29T13:50:53.655Z,26.74
2018-09-29T13:53:22.726Z,26.71
2018-09-29T13:55:51.909Z,26.35
2018-09-29T13:58:21.089Z,26.05
2018-09-29T14:00:50.343Z,26.09
2018-09-29T14:03:19.541Z,25.95
2018-09-29T14:05:48.686Z,25.73
2018-09-29T14:08:17.862Z,25.52
2018-09-29T14:10:47.073Z,25.44
2018-09-29T14:13:16.267Z,25.34
2018-09-29T14:16:05.331Z,25.36
2018-09-29T14:18:34.553Z,25.29
2018-09-29T14:21:03.728Z,25.26
2018-09-29T14:23:33.212Z,25.21
2018-09-29T14:26:02.479Z,25.16
2018-09-29T14:28:31.773Z,25.13
2018-09-29T14:31:01.001Z,25.12
2018-09-29T14:33:30.229Z,25.11
2018-09-29T14:35:59.551Z,25.10
2018-09-29T14:38:29.341Z,25.11
2018-09-29T14:40:58.557Z,25.09
2018-09-29T14:43:29.629Z,25.04
2018-09-29T14:45:59.572Z,25.05
2018-09-29T14:48:29.375Z,25.03
2018-09-29T14:50:58.538Z,25.05
2018-09-29T14:53:28.393Z,25.07
2018-09-29T14:55:57.639Z,25.01
2018-09-29T14:58:26.970Z,24.97
2018-09-29T15:00:56.402Z,24.88
2018-09-29T15:03:27.389Z,24.83
2018-09-29T15:05:56.691Z,24.80
2018-09-29T15:08:26.344Z,24.76
2018-09-29T15:10:55.685Z,24.72
2018-09-29T15:13:25.185Z,24.66
2018-09-29T15:15:54.633Z,24.57
2018-09-29T15:18:24.244Z,24.54
2018-09-29T15:20:53.601Z,24.53
2018-09-29T15:23:22.820Z,24.47
2018-09-29T15:25:52.382Z,24.46
2018-09-29T15:28:21.666Z,24.32
2018-09-29T15:30:50.923Z,24.21
2018-09-29T15:33:20.325Z,24.13
2018-09-29T15:35:49.532Z,24.10
2018-09-29T15:38:18.758Z,24.09
2018-09-29T15:40:47.933Z,23.97
2018-09-29T15:43:17.242Z,23.90
2018-09-29T15:45:46.515Z,23.83
2018-09-29T15:48:15.982Z,23.77
2018-09-29T15:50:45.204Z,23.70
2018-09-29T15:53:14.618Z,23.74
2018-09-29T15:55:44.027Z,23.69
2018-09-29T15:58:13.206Z,23.72
2018-09-29T16:00:42.777Z,23.74
2018-09-29T16:03:12.142Z,23.76
2018-09-29T16:05:41.880Z,23.70
2018-09-29T16:08:28.243Z,23.71
2018-09-29T16:11:01.141Z,23.56
2018-09-29T16:13:40.082Z,23.48
2018-09-29T16:16:27.165Z,23.31
2018-09-29T16:19:11.561Z,23.35
2018-09-29T16:21:57.375Z,23.32
2018-09-29T16:24:29.509Z,23.21
2018-09-29T16:27:07.422Z,23.17
2018-09-29T16:29:52.483Z,23.08
2018-09-29T16:32:28.418Z,23.03
2018-09-29T16:35:06.437Z,22.98
2018-09-29T16:37:47.426Z,22.83
2018-09-29T16:44:26.486Z,22.59
2018-09-29T16:47:44.150Z,22.65
2018-09-29T16:50:32.927Z,22.63
2018-09-29T16:53:02.332Z,22.53
2018-09-29T16:55:33.325Z,22.57
2018-09-29T16:58:02.680Z,22.51
2018-09-29T17:00:32.009Z,22.39
2018-09-29T17:03:01.233Z,22.23
2018-09-29T17:05:30.543Z,21.91
2018-09-29T17:07:59.895Z,21.93
2018-09-29T17:10:29.460Z,21.83
2018-09-29T17:12:58.630Z,21.71
2018-09-29T17:15:28.357Z,21.57
2018-09-29T17:17:57.618Z,21.49
2018-09-29T17:20:27.088Z,21.35
2018-09-29T17:22:56.524Z,21.27
2018-09-29T17:25:26.223Z,21.27
2018-09-29T17:27:55.617Z,21.32
2018-09-29T17:30:24.619Z,21.16
2018-09-29T17:32:53.766Z,21.21
2018-09-29T17:35:23.212Z,20.90
2018-09-29T17:37:52.521Z,20.68
2018-09-29T17:40:24.329Z,20.78
2018-09-29T17:42:53.671Z,20.85
2018-09-29T17:45:23.271Z,20.59
2018-09-29T17:47:52.429Z,20.63
2018-09-29T17:50:21.602Z,20.57
2018-09-29T17:52:51.363Z,20.56
2018-09-29T17:55:20.722Z,20.48
2018-09-29T17:57:50.097Z,20.32
2018-09-29T18:00:25.756Z,20.14
2018-09-29T18:02:55.255Z,20.09
2018-09-29T18:05:24.419Z,20.02
2018-09-29T18:07:53.727Z,19.97
2018-09-29T18:10:23.292Z,20.13
2018-09-29T18:12:52.460Z,20.15
2018-09-29T18:15:21.967Z,20.00
2018-09-29T18:17:51.979Z,20.12
2018-09-29T18:20:23.718Z,20.06
2018-09-29T18:22:53.137Z,19.97
2018-09-29T18:25:22.586Z,19.95
2018-09-29T18:27:52.244Z,19.80
2018-09-29T18:30:22.923Z,19.75
2018-09-29T18:32:52.278Z,19.73
2018-09-29T18:35:22.662Z,19.49
2018-09-29T18:37:52.139Z,19.32
2018-09-29T18:40:22.872Z,19.20
2018-09-29T18:42:52.254Z,19.13
2018-09-29T18:46:11.019Z,19.12
2018-09-29T18:48:40.335Z,18.96
2018-09-29T18:51:09.762Z,18.89
2018-09-29T18:53:39.221Z,18.84
2018-09-29T18:56:08.604Z,18.77
2018-09-29T18:58:38.009Z,18.77
2018-09-29T19:01:07.258Z,18.72
2018-09-29T19:03:36.753Z,18.64
2018-09-29T19:06:05.883Z,18.57
2018-09-29T19:08:35.009Z,18.61
2018-09-29T19:11:04.203Z,18.53
2018-09-29T19:13:33.670Z,18.44
2018-09-29T19:16:02.865Z,18.56
2018-09-29T19:18:32.086Z,18.59
2018-09-29T19:21:01.497Z,18.59
2018-09-29T19:23:30.741Z,18.42
2018-09-29T19:26:00.039Z,18.32
2018-09-29T19:28:29.632Z,18.17
2018-09-29T19:30:59.217Z,18.09
2018-09-29T19:33:28.800Z,18.03
2018-09-29T19:35:57.913Z,18.07
2018-09-29T19:38:27.305Z,17.99
2018-09-29T19:40:57.330Z,17.91
2018-09-29T19:43:27.240Z,17.94
2018-09-29T19:45:56.840Z,17.87
2018-09-29T19:48:26.220Z,17.83
2018-09-29T19:50:55.613Z,17.88
2018-09-29T19:53:24.863Z,17.75
2018-09-29T19:55:54.090Z,17.71
2018-09-29T19:58:23.316Z,17.72
2018-09-29T20:00:52.625Z,17.71
2018-09-29T20:03:21.853Z,17.58
2018-09-29T20:05:50.945Z,17.61
2018-09-29T20:08:20.256Z,17.49
2018-09-29T20:10:49.621Z,17.50
2018-09-29T20:13:18.841Z,17.46
2018-09-29T20:15:48.044Z,17.47
2018-09-29T20:18:17.157Z,17.49
2018-09-29T20:20:46.344Z,17.31
2018-09-29T20:23:15.746Z,17.32
2018-09-29T20:25:45.227Z,17.32
2018-09-29T20:28:14.434Z,17.16
2018-09-29T20:30:45.244Z,17.21
2018-09-29T20:33:14.398Z,17.20
2018-09-29T20:35:43.675Z,17.09
2018-09-29T20:38:12.897Z,17.14
2018-09-29T20:40:42.336Z,17.05
2018-09-29T20:43:12.190Z,16.97
2018-09-29T20:45:41.564Z,16.98
2018-09-29T20:48:10.844Z,17.03
2018-09-29T20:50:40.017Z,16.97
2018-09-29T20:53:09.232Z,16.91
2018-09-29T20:55:38.408Z,16.83
2018-09-29T20:58:07.900Z,16.82
2018-09-29T21:00:37.592Z,16.89
2018-09-29T21:03:07.023Z,16.80
2018-09-29T21:05:37.348Z,16.69
2018-09-29T21:08:06.659Z,16.65
2018-09-29T21:10:36.137Z,16.59
2018-09-29T21:13:05.721Z,16.60
2018-09-29T21:15:35.000Z,16.47
2018-09-29T21:18:04.208Z,16.45
2018-09-29T21:20:34.183Z,16.46
2018-09-29T21:23:03.344Z,16.30
2018-09-29T21:25:33.034Z,16.23
2018-09-29T21:28:02.250Z,16.07
2018-09-29T21:30:31.761Z,16.18
2018-09-29T21:33:01.048Z,16.20
2018-09-29T21:35:31.047Z,16.26
2018-09-29T21:38:00.336Z,16.19
2018-09-29T21:40:30.667Z,16.15
2018-09-29T21:43:00.012Z,16.15
2018-09-29T21:45:29.737Z,16.03
2018-09-29T21:47:59.380Z,16.02
2018-09-29T21:50:29.761Z,16.03
2018-09-29T21:52:59.013Z,16.04
2018-09-29T21:55:29.411Z,15.95
2018-09-29T21:57:58.806Z,16.00
2018-09-29T22:00:46.201Z,15.98
2018-09-29T22:03:16.368Z,15.75
2018-09-29T22:05:46.380Z,15.70
2018-09-29T22:08:15.861Z,15.57
2018-09-29T22:10:45.209Z,15.51
2018-09-29T22:13:14.426Z,15.57
2018-09-29T22:15:43.633Z,15.67
2018-09-29T22:18:12.810Z,15.75
2018-09-29T22:20:41.981Z,15.77
2018-09-29T22:23:11.177Z,15.74
2018-09-29T22:25:41.012Z,15.53
2018-09-29T22:28:10.191Z,15.67
2018-09-29T22:30:39.709Z,15.57
2018-09-29T22:33:08.956Z,15.59
2018-09-29T22:35:38.247Z,15.60
2018-09-29T22:38:08.065Z,15.49
2018-09-29T22:41:49.200Z,15.51
2018-09-29T22:44:18.463Z,15.43
2018-09-29T22:46:47.513Z,15.34
2018-09-29T22:49:16.611Z,15.25
2018-09-29T22:51:45.873Z,15.31
2018-09-29T22:54:14.918Z,15.30
2018-09-29T22:56:43.945Z,15.34
2018-09-29T22:59:12.981Z,15.44
2018-09-29T23:01:42.130Z,15.37
2018-09-29T23:04:11.123Z,15.24
2018-09-29T23:06:40.144Z,15.20
2018-09-29T23:09:11.119Z,15.39
2018-09-29T23:11:40.388Z,15.31
2018-09-29T23:14:11.945Z,15.34
2018-09-29T23:16:40.960Z,15.34
2018-09-29T23:19:12.482Z,15.26
2018-09-29T23:21:42.251Z,15.05
2018-09-29T23:24:11.575Z,14.88
2018-09-29T23:26:40.593Z,14.79
2018-09-29T23:29:09.569Z,14.94
2018-09-29T23:31:38.592Z,14.85
2018-09-29T23:34:07.915Z,14.77
2018-09-29T23:36:36.900Z,14.80
2018-09-29T23:39:08.240Z,14.79
2018-09-29T23:41:37.191Z,14.77
2018-09-29T23:44:06.180Z,14.82
2018-09-29T23:46:35.238Z,14.77
2018-09-29T23:49:04.275Z,14.80
2018-09-29T23:51:33.278Z,14.85
2018-09-29T23:54:02.389Z,14.83
2018-09-29T23:56:31.353Z,14.88
2018-09-29T23:59:00.753Z,14.75
